createdAt,value
2022-12-18T00:03:42.773Z,-7.70
2022-12-18T00:08:42.456Z,-7.68
2022-12-18T00:13:42.725Z,-7.54
2022-12-18T00:18:42.554Z,-7.45
2022-12-18T00:23:42.593Z,-7.37
2022-12-18T00:28:42.238Z,-7.19
2022-12-18T00:33:42.429Z,-7.08
2022-12-18T00:38:42.123Z,-7.06
2022-12-18T00:43:42.284Z,-7.01
2022-12-18T00:48:42.004Z,-6.93
2022-12-18T00:53:41.984Z,-6.86
2022-12-18T00:58:41.892Z,-6.83
2022-12-18T01:03:42.109Z,-6.79
2022-12-18T01:08:41.772Z,-6.72
2022-12-18T01:13:42.017Z,-6.71
2022-12-18T01:18:41.655Z,-6.55
2022-12-18T01:23:42.054Z,-6.69
2022-12-18T01:28:41.548Z,-6.67
2022-12-18T01:33:41.688Z,-6.75
2022-12-18T01:38:41.428Z,-6.71
2022-12-18T01:43:41.481Z,-6.89
2022-12-18T01:48:41.330Z,-6.83
2022-12-18T01:53:41.383Z,-6.83
2022-12-18T01:58:41.194Z,-6.98
2022-12-18T02:03:41.397Z,-6.98
2022-12-18T02:08:41.102Z,-7.06
2022-12-18T02:13:41.229Z,-6.90
2022-12-18T02:18:40.977Z,-7.06
2022-12-18T02:23:41.184Z,-7.11
2022-12-18T02:28:40.878Z,-7.25
2022-12-18T02:33:41.137Z,-7.42
2022-12-18T02:38:40.736Z,-7.53
2022-12-18T02:43:40.898Z,-7.70
2022-12-18T02:48:40.614Z,-7.72
2022-12-18T02:53:40.884Z,-7.92
2022-12-18T02:58:40.504Z,-8.08
2022-12-18T03:03:40.811Z,-8.19
2022-12-18T03:08:40.393Z,-8.53
2022-12-18T03:13:40.820Z,-8.84
2022-12-18T03:18:40.318Z,-9.00
2022-12-18T03:23:40.631Z,-8.79
2022-12-18T03:28:40.161Z,-8.90
2022-12-18T03:33:40.456Z,-9.02
2022-12-18T03:38:40.042Z,-9.14
2022-12-18T03:43:40.247Z,-9.25
2022-12-18T03:48:39.929Z,-9.44
2022-12-18T03:53:40.162Z,-9.43
2022-12-18T03:58:39.814Z,-9.75
2022-12-18T04:03:40.131Z,-10.01
2022-12-18T04:08:39.699Z,-10.08
2022-12-18T04:13:39.921Z,-9.98
2022-12-18T04:18:39.587Z,-10.01
2022-12-18T04:23:39.903Z,-9.93
2022-12-18T04:28:39.486Z,-9.76
2022-12-18T04:33:39.839Z,-9.62
2022-12-18T04:38:39.387Z,-9.65
2022-12-18T04:43:39.751Z,-9.50
2022-12-18T04:48:39.265Z,-9.47
2022-12-18T04:53:39.610Z,-9.47
2022-12-18T04:58:39.147Z,-9.64
2022-12-18T05:03:39.694Z,-9.71
2022-12-18T05:08:39.045Z,-9.75
2022-12-18T05:13:39.370Z,-9.74
2022-12-18T05:18:38.926Z,-9.86
2022-12-18T05:23:39.274Z,-9.82
2022-12-18T05:28:38.827Z,-9.85
2022-12-18T05:33:39.057Z,-9.75
2022-12-18T05:38:38.721Z,-9.75
2022-12-18T05:43:39.116Z,-9.78
2022-12-18T05:48:38.619Z,-9.69
2022-12-18T05:53:39.000Z,-9.72
2022-12-18T05:58:38.480Z,-9.74
2022-12-18T06:03:38.521Z,-9.72
2022-12-18T06:08:41.537Z,-9.75
2022-12-18T06:13:39.828Z,-9.83
2022-12-18T06:18:38.276Z,-9.74
2022-12-18T06:23:38.552Z,-9.72
2022-12-18T06:28:38.155Z,-9.71
2022-12-18T06:33:38.427Z,-9.78
2022-12-18T06:38:38.385Z,-9.86
2022-12-18T06:43:38.321Z,-9.85
2022-12-18T06:48:37.936Z,-9.87
2022-12-18T06:53:38.294Z,-9.92
2022-12-18T06:58:37.833Z,-10.00
2022-12-18T07:03:38.220Z,-10.04
2022-12-18T07:08:37.715Z,-10.08
2022-12-18T07:13:37.874Z,-10.14
2022-12-18T07:18:37.612Z,-10.19
2022-12-18T07:23:38.042Z,-10.28
2022-12-18T07:28:37.497Z,-10.25
2022-12-18T07:33:37.696Z,-10.26
2022-12-18T07:38:37.381Z,-10.21
2022-12-18T07:43:37.438Z,-10.00
2022-12-18T07:48:37.269Z,-9.86
2022-12-18T07:53:37.512Z,-9.66
2022-12-18T07:58:37.152Z,-9.50
2022-12-18T08:03:37.360Z,-9.26
2022-12-18T08:08:37.045Z,-9.14
2022-12-18T08:13:37.276Z,-9.17
2022-12-18T08:18:36.929Z,-8.97
2022-12-18T08:23:42.084Z,-8.97
2022-12-18T08:28:37.828Z,-8.94
2022-12-18T08:33:36.884Z,-8.86
2022-12-18T08:38:36.707Z,-8.72
2022-12-18T08:43:36.742Z,-8.64
2022-12-18T08:48:36.604Z,-8.42
2022-12-18T08:53:36.609Z,-8.29
2022-12-18T08:58:36.489Z,-8.14
2022-12-18T09:03:36.416Z,-7.97
2022-12-18T09:08:36.354Z,-7.95
2022-12-18T09:13:36.341Z,-8.01
2022-12-18T09:18:36.249Z,-7.79
2022-12-18T09:23:36.194Z,-7.76
2022-12-18T09:28:36.133Z,-7.61
2022-12-18T09:33:36.072Z,-7.43
2022-12-18T09:38:36.023Z,-7.45
2022-12-18T09:43:35.971Z,-7.45
2022-12-18T09:48:35.901Z,-7.43
2022-12-18T09:53:35.851Z,-7.57
2022-12-18T09:58:35.792Z,-7.26
2022-12-18T10:03:35.741Z,-7.31
2022-12-18T10:08:35.679Z,-7.10
2022-12-18T10:13:35.619Z,-7.08
2022-12-18T10:18:35.559Z,-7.06
2022-12-18T10:23:35.529Z,-7.07
2022-12-18T10:28:35.453Z,-7.00
2022-12-18T10:33:35.407Z,-6.83
2022-12-18T10:38:35.329Z,-6.79
2022-12-18T10:43:35.277Z,-6.59
2022-12-18T10:48:35.217Z,-6.64
2022-12-18T10:53:35.165Z,-6.72
2022-12-18T10:58:35.115Z,-6.74
2022-12-18T11:03:35.097Z,-6.72
2022-12-18T11:08:34.985Z,-6.80
2022-12-18T11:13:35.006Z,-6.82
2022-12-18T11:18:34.865Z,-6.77
2022-12-18T11:23:34.807Z,-6.79
2022-12-18T11:28:34.772Z,-6.77
2022-12-18T11:33:34.693Z,-6.72
2022-12-18T11:38:34.634Z,-6.69
2022-12-18T11:43:34.603Z,-6.67
2022-12-18T11:48:34.512Z,-6.65
2022-12-18T11:53:34.454Z,-6.55
2022-12-18T11:58:34.393Z,-6.46
2022-12-18T12:03:34.413Z,-6.42
2022-12-18T12:08:34.280Z,-6.52
2022-12-18T12:13:34.225Z,-6.61
2022-12-18T12:18:34.168Z,-6.52
2022-12-18T12:23:34.109Z,-6.42
2022-12-18T12:28:34.041Z,-6.46
2022-12-18T12:33:34.009Z,-6.42
2022-12-18T12:38:33.938Z,-6.53
2022-12-18T12:43:33.880Z,-6.50
2022-12-18T12:48:33.818Z,-6.39
2022-12-18T12:53:33.758Z,-6.29
2022-12-18T12:58:33.696Z,-6.43
2022-12-18T13:03:33.639Z,-6.40
2022-12-18T13:08:35.470Z,-6.59
2022-12-18T13:13:33.530Z,-6.56
2022-12-18T13:18:33.466Z,-6.64
2022-12-18T13:23:33.408Z,-6.59
2022-12-18T13:28:33.337Z,-6.69
2022-12-18T13:33:33.290Z,-6.74
2022-12-18T13:38:33.235Z,-6.87
2022-12-18T13:43:33.180Z,-7.01
2022-12-18T13:48:33.105Z,-7.04
2022-12-18T13:53:33.053Z,-7.16
2022-12-18T13:58:33.033Z,-7.25
2022-12-18T14:03:32.982Z,-7.36
2022-12-18T14:08:32.890Z,-7.45
2022-12-18T14:13:32.931Z,-7.46
2022-12-18T14:18:32.763Z,-7.58
2022-12-18T14:23:32.713Z,-7.63
2022-12-18T14:28:32.655Z,-7.74
2022-12-18T14:33:32.602Z,-7.90
2022-12-18T14:38:32.550Z,-7.99
2022-12-18T14:43:32.490Z,-8.11
2022-12-18T14:48:32.428Z,-8.16
2022-12-18T14:53:32.372Z,-8.25
2022-12-18T14:58:32.310Z,-8.39
2022-12-18T15:03:32.293Z,-8.33
2022-12-18T15:08:32.197Z,-8.39
2022-12-18T15:13:32.146Z,-8.54
2022-12-18T15:18:32.077Z,-8.63
2022-12-18T15:23:32.037Z,-8.60
2022-12-18T15:28:31.988Z,-8.66
2022-12-18T15:33:31.917Z,-8.72
2022-12-18T15:38:31.846Z,-8.74
2022-12-18T15:43:31.813Z,-8.82
2022-12-18T15:48:31.728Z,-8.79
2022-12-18T15:53:31.696Z,-8.86
2022-12-18T15:58:31.620Z,-8.96
2022-12-18T16:03:31.617Z,-8.96
2022-12-18T16:08:31.505Z,-8.92
2022-12-18T16:13:31.456Z,-8.90
2022-12-18T16:18:31.404Z,-8.86
2022-12-18T16:23:31.335Z,-8.92
2022-12-18T16:28:31.290Z,-8.84
2022-12-18T16:33:31.221Z,-8.82
2022-12-18T16:38:31.163Z,-8.81
2022-12-18T16:43:31.101Z,-8.69
2022-12-18T16:48:31.049Z,-8.74
2022-12-18T16:53:30.996Z,-8.68
2022-12-18T16:58:30.929Z,-8.64
2022-12-18T17:03:30.915Z,-8.63
2022-12-18T17:08:30.832Z,-8.63
2022-12-18T17:13:30.774Z,-8.66
2022-12-18T17:18:30.707Z,-8.61
2022-12-18T17:23:30.646Z,-8.64
2022-12-18T17:28:30.585Z,-8.63
2022-12-18T17:33:30.526Z,-8.60
2022-12-18T17:38:30.475Z,-8.60
2022-12-18T17:43:30.406Z,-8.69
2022-12-18T17:48:30.354Z,-8.66
2022-12-18T17:53:30.293Z,-8.68
2022-12-18T17:58:30.255Z,-8.63
2022-12-18T18:03:30.317Z,-8.64
2022-12-18T18:08:30.137Z,-8.63
2022-12-18T18:13:36.672Z,-8.60
2022-12-18T18:18:31.002Z,-8.61
2022-12-18T18:23:29.944Z,-8.57
2022-12-18T18:28:29.891Z,-8.54
2022-12-18T18:33:29.840Z,-8.48
2022-12-18T18:38:29.772Z,-8.48
2022-12-18T18:43:29.710Z,-8.50
2022-12-18T18:48:30.449Z,-8.57
2022-12-18T18:53:29.590Z,-8.64
2022-12-18T18:58:29.548Z,-9.05
2022-12-18T19:03:29.517Z,-9.32
2022-12-18T19:08:29.426Z,-9.47
2022-12-18T19:13:29.361Z,-9.55
2022-12-18T19:18:29.308Z,-9.65
2022-12-18T19:23:29.257Z,-9.68
2022-12-18T19:28:29.202Z,-9.68
2022-12-18T19:33:44.640Z,-9.62
2022-12-18T19:38:30.084Z,-9.62
2022-12-18T19:43:29.035Z,-9.72
2022-12-18T19:48:28.977Z,-9.72
2022-12-18T19:53:29.229Z,-9.76
2022-12-18T19:58:28.864Z,-9.85
2022-12-18T20:03:32.353Z,-9.75
2022-12-18T20:08:28.755Z,-9.80
2022-12-18T20:13:28.704Z,-9.92
2022-12-18T20:18:28.644Z,-10.11
2022-12-18T20:23:28.587Z,-10.14
2022-12-18T20:28:28.532Z,-10.11
2022-12-18T20:33:28.483Z,-10.21
2022-12-18T20:38:28.423Z,-10.22
2022-12-18T20:43:28.360Z,-10.19
2022-12-18T20:48:28.311Z,-10.11
2022-12-18T20:53:28.241Z,-10.18
2022-12-18T20:58:28.198Z,-10.16
2022-12-18T21:03:28.212Z,-10.10
2022-12-18T21:08:28.080Z,-9.89
2022-12-18T21:13:28.020Z,-9.72
2022-12-18T21:18:27.979Z,-9.47
2022-12-18T21:23:27.918Z,-9.43
2022-12-18T21:28:27.866Z,-9.26
2022-12-18T21:33:27.799Z,-9.13
2022-12-18T21:38:27.760Z,-8.93
2022-12-18T21:43:27.687Z,-8.86
2022-12-18T21:48:27.627Z,-8.86
2022-12-18T21:53:27.577Z,-8.92
2022-12-18T21:58:27.525Z,-8.90
2022-12-18T22:03:27.550Z,-8.75
2022-12-18T22:08:27.404Z,-8.61
2022-12-18T22:13:27.353Z,-8.54
2022-12-18T22:18:27.285Z,-8.57
2022-12-18T22:23:27.229Z,-8.68
2022-12-18T22:28:27.173Z,-8.78
2022-12-18T22:33:27.104Z,-8.84
2022-12-18T22:38:27.062Z,-8.69
2022-12-18T22:43:26.996Z,-8.75
2022-12-18T22:48:26.942Z,-8.69
2022-12-18T22:53:26.880Z,-8.58
2022-12-18T22:58:26.831Z,-8.51
2022-12-18T23:03:26.792Z,-8.40
2022-12-18T23:08:26.719Z,-8.40
2022-12-18T23:13:26.650Z,-8.33
2022-12-18T23:18:26.591Z,-8.29
2022-12-18T23:23:26.529Z,-8.16
2022-12-18T23:28:26.479Z,-8.14
2022-12-18T23:33:26.417Z,-8.18
2022-12-18T23:38:26.368Z,-8.15
2022-12-18T23:43:26.626Z,-8.08
2022-12-18T23:48:26.250Z,-7.96
2022-12-18T23:53:26.187Z,-7.96
2022-12-18T23:58:26.157Z,-7.84
